Time;durP1;ratioP1;P1;durP2;ratioP2;P2;SDS_P1;SDS_P2;PMS_P1;PMS_P2;Temp;Humidity;BMP_temperature;BMP_pressure;BME280_temperature;BME280_humidity;BME280_pressure;Samples;Min_cycle;Max_cycle;Signal;HPM_P1;HPM_P2
2021/01/13 00:02:01;;;;;;;26.98;17.23;;;;;;;-0.69;81.47;100197.72;5074168;28;20041;-77
2021/01/13 00:05:06;;;;;;;19.98;13.75;;;;;;;-0.70;81.25;100188.97;5075238;28;20040;-77
2021/01/13 00:08:11;;;;;;;23.05;13.98;;;;;;;-0.71;81.33;100192.53;5074801;28;20041;-77
2021/01/13 00:11:16;;;;;;;21.90;14.02;;;;;;;-0.72;81.49;100182.06;5074825;28;20049;-77
2021/01/13 00:14:21;;;;;;;20.63;14.07;;;;;;;-0.69;81.30;100185.41;5074783;28;20037;-77
2021/01/13 00:17:25;;;;;;;20.15;14.38;;;;;;;-0.74;81.26;100168.94;5074803;28;20040;-77
2021/01/13 00:20:30;;;;;;;23.17;13.93;;;;;;;-0.74;81.35;100170.75;5074895;28;20040;-77
2021/01/13 00:23:34;;;;;;;21.15;14.40;;;;;;;-0.69;81.09;100171.34;5073770;28;20463;-76
2021/01/13 00:26:39;;;;;;;19.55;12.88;;;;;;;-0.71;81.25;100171.44;5073724;28;20048;-76
2021/01/13 00:29:44;;;;;;;19.08;13.30;;;;;;;-0.78;81.49;100164.75;5074719;28;20048;-76
2021/01/13 00:32:48;;;;;;;21.70;13.77;;;;;;;-0.78;81.68;100159.47;5085270;28;20044;-76
2021/01/13 00:35:53;;;;;;;20.75;13.82;;;;;;;-0.80;82.10;100157.81;5073687;28;20040;-76
2021/01/13 00:38:57;;;;;;;21.48;14.15;;;;;;;-0.78;82.02;100164.75;5074354;28;20399;-77
2021/01/13 00:42:03;;;;;;;19.70;13.60;;;;;;;-0.77;82.28;100166.47;5074532;28;20052;-77
2021/01/13 00:45:09;;;;;;;22.55;14.73;;;;;;;-0.80;81.91;100165.72;5073619;28;20564;-76
2021/01/13 00:48:14;;;;;;;23.15;14.02;;;;;;;-0.75;82.08;100169.03;5073300;28;20048;-76
2021/01/13 00:51:18;;;;;;;19.65;13.05;;;;;;;-0.79;81.94;100152.47;5074424;28;20053;-76
2021/01/13 00:54:23;;;;;;;19.85;11.93;;;;;;;-0.85;81.51;100142.22;5073630;28;20379;-78
2021/01/13 00:57:27;;;;;;;17.88;12.65;;;;;;;-0.90;81.62;100146.84;5084911;28;20045;-78
2021/01/13 01:00:32;;;;;;;18.25;12.35;;;;;;;-0.93;81.78;100140.84;5073899;28;20044;-76
2021/01/13 01:03:36;;;;;;;16.58;12.02;;;;;;;-0.94;81.56;100152.31;5073932;28;20495;-76
2021/01/13 01:06:41;;;;;;;16.85;11.48;;;;;;;-0.95;81.66;100143.56;5073840;28;20040;-77
2021/01/13 01:09:45;;;;;;;23.60;11.43;;;;;;;-0.97;81.03;100150.69;5073875;28;20044;-78
2021/01/13 01:12:49;;;;;;;15.07;11.25;;;;;;;-1.03;81.09;100148.31;5072723;28;20045;-78
2021/01/13 01:15:54;;;;;;;15.95;10.57;;;;;;;-0.97;81.20;100155.09;5074189;28;20040;-77
2021/01/13 01:18:59;;;;;;;20.17;11.52;;;;;;;-0.96;81.14;100149.75;5073550;28;20044;-77
2021/01/13 01:22:04;;;;;;;15.88;10.88;;;;;;;-0.98;80.96;100167.41;5073585;28;20048;-77
2021/01/13 01:25:08;;;;;;;19.05;11.90;;;;;;;-1.05;81.06;100162.47;5072840;28;20037;-77
2021/01/13 01:28:13;;;;;;;15.82;10.90;;;;;;;-1.04;81.27;100151.88;5073653;28;20044;-76
2021/01/13 01:31:18;;;;;;;13.38;10.57;;;;;;;-0.96;81.52;100162.91;5073718;28;20044;-76
2021/01/13 01:34:22;;;;;;;13.80;10.20;;;;;;;-1.00;81.47;100161.34;5073102;28;20053;-77
2021/01/13 01:37:32;;;;;;;17.45;11.18;;;;;;;-0.94;81.53;100161.06;5084275;28;20040;-77
2021/01/13 01:40:36;;;;;;;14.20;9.88;;;;;;;-0.95;81.40;100151.47;5073806;28;20048;-78
2021/01/13 01:43:43;;;;;;;17.38;10.80;;;;;;;-0.94;81.26;100136.53;5072604;28;20048;-77
2021/01/13 01:46:56;;;;;;;15.93;10.45;;;;;;;-0.92;81.27;100139.94;5061040;28;20041;-76
2021/01/13 01:50:01;;;;;;;16.10;10.00;;;;;;;-0.92;81.14;100126.75;5073515;28;20040;-77
2021/01/13 01:53:22;;;;;;;13.90;9.20;;;;;;;-0.87;81.18;100132.69;5072671;28;20052;-77
2021/01/13 01:56:28;;;;;;;14.82;9.93;;;;;;;-0.90;81.11;100122.28;5073394;28;20056;-77
2021/01/13 02:00:07;;;;;;;14.68;9.70;;;;;;;-0.87;81.08;100136.19;5073116;28;20056;-77
2021/01/13 02:03:22;;;;;;;14.57;10.32;;;;;;;-0.86;81.22;100139.66;5073276;28;20119;-77
2021/01/13 02:06:33;;;;;;;15.57;10.02;;;;;;;-0.89;81.07;100130.09;5073468;28;20048;-77
2021/01/13 02:09:38;;;;;;;13.50;9.20;;;;;;;-0.91;81.24;100126.69;5077175;28;20136;-77
2021/01/13 02:12:51;;;;;;;16.92;9.80;;;;;;;-0.94;81.26;100126.81;5088256;28;20051;-78
2021/01/13 02:15:56;;;;;;;12.70;9.10;;;;;;;-0.94;81.36;100123.34;5077081;28;20399;-76
2021/01/13 02:19:16;;;;;;;12.77;9.07;;;;;;;-0.89;81.04;100140.63;5077232;28;20044;-75
2021/01/13 02:22:26;;;;;;;13.40;9.05;;;;;;;-0.96;81.11;100133.94;5076776;28;20043;-77
2021/01/13 02:25:39;;;;;;;12.25;8.40;;;;;;;-0.94;81.15;100141.78;5076822;28;20047;-77
2021/01/13 02:28:54;;;;;;;12.30;9.18;;;;;;;-1.02;81.08;100128.97;5077130;28;20384;-77
2021/01/13 02:32:08;;;;;;;12.10;8.13;;;;;;;-1.00;81.25;100129.75;5076004;28;20051;-76
2021/01/13 02:35:25;;;;;;;12.95;8.70;;;;;;;-1.00;81.50;100121.84;5076130;28;20068;-77
2021/01/13 02:38:32;;;;;;;13.70;8.40;;;;;;;-1.04;81.47;100120.28;5076554;28;20505;-77
2021/01/13 02:41:44;;;;;;;13.50;9.23;;;;;;;-1.04;81.63;100120.28;5075598;28;20068;-77
2021/01/13 02:45:11;;;;;;;11.90;8.27;;;;;;;-1.03;81.63;100129.00;5075722;28;20060;-78
2021/01/13 02:48:22;;;;;;;15.25;8.80;;;;;;;-1.05;81.66;100128.22;5076478;28;20517;-78
2021/01/13 02:51:30;;;;;;;10.93;7.63;;;;;;;-1.10;81.90;100124.94;5076403;28;20474;-77
2021/01/13 02:54:41;;;;;;;11.68;8.57;;;;;;;-1.10;81.81;100115.25;5076567;28;20052;-78
2021/01/13 02:57:51;;;;;;;16.75;9.15;;;;;;;-1.07;81.68;100119.53;5076494;28;20055;-77
2021/01/13 03:00:57;;;;;;;11.52;8.50;;;;;;;-1.10;81.73;100114.41;5075935;28;20064;-77
2021/01/13 03:04:02;;;;;;;18.50;8.68;;;;;;;-1.05;81.77;100107.16;5076145;28;20059;-78
2021/01/13 03:07:12;;;;;;;13.50;8.43;;;;;;;-1.06;81.49;100111.56;5063766;28;20047;-78
2021/01/13 03:10:18;;;;;;;11.82;7.22;;;;;;;-1.00;81.61;100113.06;5075447;28;20498;-78
2021/01/13 03:13:35;;;;;;;11.88;8.30;;;;;;;-0.96;81.46;100106.72;5076001;28;20056;-78
2021/01/13 03:16:46;;;;;;;13.10;8.02;;;;;;;-1.01;81.41;100124.56;5075762;28;20483;-76
2021/01/13 03:20:28;;;;;;;12.55;8.57;;;;;;;-1.03;81.48;100127.22;5075405;28;20091;-78
2021/01/13 03:23:45;;;;;;;12.10;8.25;;;;;;;-1.02;81.40;100133.38;5074931;28;20071;-78
2021/01/13 03:26:52;;;;;;;12.27;8.50;;;;;;;-1.05;81.63;100129.09;5076043;28;20063;-80
2021/01/13 03:29:59;;;;;;;11.07;7.82;;;;;;;-1.05;81.44;100122.97;5075734;28;20051;-78
2021/01/13 03:33:16;;;;;;;10.40;7.13;;;;;;;-1.00;81.27;100136.78;5074798;28;20071;-78
2021/01/13 03:36:45;;;;;;;11.50;8.07;;;;;;;-1.03;81.25;100123.75;5075544;28;20494;-79
2021/01/13 03:39:51;;;;;;;11.68;7.43;;;;;;;-1.08;81.39;100128.34;5074662;28;20067;-75
2021/01/13 03:42:58;;;;;;;10.07;7.45;;;;;;;-1.06;81.48;100137.91;5075289;28;20151;-77
2021/01/13 03:46:06;;;;;;;10.70;8.10;;;;;;;-1.07;81.61;100133.56;5075693;28;20047;-77
2021/01/13 03:49:17;;;;;;;11.18;7.55;;;;;;;-1.09;81.69;100138.06;5075316;28;20498;-78
2021/01/13 03:52:26;;;;;;;10.18;7.50;;;;;;;-1.06;81.94;100147.59;5075354;28;20487;-78
2021/01/13 03:55:34;;;;;;;11.55;7.60;;;;;;;-1.01;81.84;100157.00;5074565;28;20075;-76
2021/01/13 03:58:51;;;;;;;11.98;8.02;;;;;;;-1.07;82.18;100148.50;5075100;28;20060;-79
2021/01/13 04:01:57;;;;;;;11.98;8.38;;;;;;;-1.09;82.04;100143.31;5074132;28;20048;-78
2021/01/13 04:05:33;;;;;;;11.90;8.60;;;;;;;-1.08;82.27;100154.69;5075089;28;20142;-77
2021/01/13 04:08:41;;;;;;;11.65;7.75;;;;;;;-1.10;82.36;100170.56;5074704;28;20048;-76
2021/01/13 04:11:50;;;;;;;11.70;8.18;;;;;;;-1.09;82.47;100158.25;5074849;28;20039;-77
2021/01/13 04:14:56;;;;;;;12.63;8.30;;;;;;;-1.07;82.71;100167.81;5074778;28;20047;-79
2021/01/13 04:18:04;;;;;;;11.30;8.35;;;;;;;-1.14;83.17;100163.72;5074710;28;20055;-78
2021/01/13 04:21:12;;;;;;;14.23;8.10;;;;;;;-1.18;83.36;100164.75;5074542;28;20051;-77
2021/01/13 04:24:17;;;;;;;13.90;8.90;;;;;;;-1.17;83.50;100155.97;5074608;28;20091;-77
2021/01/13 04:27:25;;;;;;;14.45;9.68;;;;;;;-1.17;83.61;100157.72;5074241;28;20044;-79
2021/01/13 04:30:30;;;;;;;14.13;9.63;;;;;;;-1.18;83.20;100172.66;5072845;28;20039;-76
2021/01/13 04:33:35;;;;;;;14.07;9.70;;;;;;;-1.19;83.33;100180.66;5074053;28;20052;-77
2021/01/13 04:36:48;;;;;;;19.27;11.43;;;;;;;-1.25;83.01;100176.50;5084959;28;20055;-77
2021/01/13 04:39:55;;;;;;;16.60;10.20;;;;;;;-1.25;83.08;100179.13;5074093;28;20041;-76
2021/01/13 04:43:04;;;;;;;21.30;11.05;;;;;;;-1.27;82.90;100169.56;5074303;28;20326;-77
2021/01/13 04:46:39;;;;;;;15.50;9.57;;;;;;;-1.31;83.44;100174.97;5074298;28;20045;-76
2021/01/13 04:49:44;;;;;;;17.58;9.93;;;;;;;-1.32;83.39;100175.03;5074069;28;20047;-77
2021/01/13 04:52:58;;;;;;;15.45;9.77;;;;;;;-1.27;83.19;100182.75;5073563;28;20155;-77
2021/01/13 04:56:05;;;;;;;17.20;10.68;;;;;;;-1.35;83.72;100173.38;5073404;28;20043;-77
2021/01/13 04:59:47;;;;;;;16.88;11.20;;;;;;;-1.38;83.83;100177.91;5073827;28;20045;-77
2021/01/13 05:03:13;;;;;;;19.83;10.57;;;;;;;-1.41;84.00;100183.34;5074091;28;20466;-77
2021/01/13 05:06:42;;;;;;;16.40;10.02;;;;;;;-1.41;84.01;100193.88;5073881;28;20475;-77
2021/01/13 05:10:16;;;;;;;16.63;10.07;;;;;;;-1.40;83.71;100200.81;5073816;28;20036;-75
2021/01/13 05:13:23;;;;;;;13.40;9.55;;;;;;;-1.49;83.71;100185.41;5073820;28;20040;-76
2021/01/13 05:16:27;;;;;;;14.00;9.55;;;;;;;-1.48;83.65;100184.50;5073564;28;20426;-77
2021/01/13 05:19:52;;;;;;;14.52;9.10;;;;;;;-1.44;83.64;100205.38;5073803;28;20479;-77
2021/01/13 05:22:58;;;;;;;16.75;10.18;;;;;;;-1.49;83.45;100202.06;5084427;28;20051;-77
2021/01/13 05:26:07;;;;;;;16.45;10.32;;;;;;;-1.51;83.20;100200.44;5073186;28;20049;-77
2021/01/13 05:29:26;;;;;;;16.17;9.68;;;;;;;-1.43;83.16;100214.09;5073725;28;20040;-77
2021/01/13 05:32:33;;;;;;;25.27;14.35;;;;;;;-1.54;83.38;100208.44;5072761;28;20590;-77
2021/01/13 05:35:40;;;;;;;22.95;15.88;;;;;;;-1.56;83.46;100208.50;5072955;28;20037;-77
2021/01/13 05:39:12;;;;;;;22.90;12.77;;;;;;;-1.64;83.67;100207.97;5073557;28;20044;-77
2021/01/13 05:42:18;;;;;;;17.80;11.52;;;;;;;-1.66;83.61;100206.31;5083168;28;20048;-77
2021/01/13 05:45:25;;;;;;;18.08;12.25;;;;;;;-1.65;83.99;100216.75;5067216;28;20406;-77
2021/01/13 05:48:36;;;;;;;20.90;13.57;;;;;;;-1.65;83.97;100223.78;5100447;28;20040;-77
2021/01/13 05:51:42;;;;;;;19.13;13.27;;;;;;;-1.63;83.99;100229.88;5099601;28;20468;-77
2021/01/13 05:54:53;;;;;;;17.08;12.23;;;;;;;-1.65;83.39;100227.28;5091075;28;20052;-77
2021/01/13 05:57:59;;;;;;;20.20;13.75;;;;;;;-1.61;83.61;100239.41;5060037;28;20049;-77
2021/01/13 06:01:35;;;;;;;17.48;12.07;;;;;;;-1.64;83.48;100239.53;5060229;28;20083;-77
2021/01/13 06:04:40;;;;;;;16.83;12.00;;;;;;;-1.63;83.58;100251.75;5058688;28;20048;-77
2021/01/13 06:07:51;;;;;;;48.30;29.88;;;;;;;-1.62;83.71;100256.13;5059965;28;20045;-76
2021/01/13 06:11:00;;;;;;;54.65;32.00;;;;;;;-1.63;83.82;100250.91;5070595;28;20045;-77
2021/01/13 06:14:06;;;;;;;31.60;19.40;;;;;;;-1.62;83.89;100261.38;5059877;28;20045;-77
2021/01/13 06:17:30;;;;;;;24.35;16.80;;;;;;;-1.64;83.77;100260.59;5059964;28;20045;-78
2021/01/13 06:20:35;;;;;;;23.75;16.38;;;;;;;-1.63;83.18;100271.97;5060058;28;20456;-75
2021/01/13 06:23:51;;;;;;;28.27;19.38;;;;;;;-1.57;83.68;100271.72;5059845;28;20044;-78
2021/01/13 06:27:21;;;;;;;30.70;18.85;;;;;;;-1.56;83.35;100282.19;5058988;28;20044;-77
2021/01/13 06:30:33;;;;;;;28.95;18.60;;;;;;;-1.69;83.32;100270.44;5058837;28;20033;-77
2021/01/13 06:33:50;;;;;;;28.25;18.90;;;;;;;-1.60;83.11;100277.09;5070076;28;20045;-77
2021/01/13 06:37:10;;;;;;;30.67;18.58;;;;;;;-1.62;83.26;100277.16;5059511;28;20049;-77
2021/01/13 06:40:20;;;;;;;28.48;18.60;;;;;;;-1.65;83.55;100289.56;5059701;28;20040;-77
2021/01/13 06:43:25;;;;;;;28.10;18.77;;;;;;;-1.66;83.49;100301.88;5059542;28;20048;-77
2021/01/13 06:46:33;;;;;;;29.77;18.27;;;;;;;-1.63;83.68;100306.19;5059573;28;20055;-76
2021/01/13 06:49:37;;;;;;;29.80;18.58;;;;;;;-1.53;83.67;100323.31;5059371;28;20040;-76
2021/01/13 06:52:47;;;;;;;33.67;19.65;;;;;;;-1.59;83.27;100321.78;5057196;28;20049;-77
2021/01/13 06:55:52;;;;;;;29.98;18.15;;;;;;;-1.66;83.37;100319.44;5056221;28;20399;-77
2021/01/13 06:59:02;;;;;;;28.05;19.17;;;;;;;-1.66;83.54;100325.56;5056162;28;20041;-76
2021/01/13 07:02:10;;;;;;;28.15;18.77;;;;;;;-1.65;83.41;100332.53;5056396;28;20053;-77
2021/01/13 07:05:33;;;;;;;28.25;19.10;;;;;;;-1.63;83.12;100337.75;5055948;28;20049;-78
2021/01/13 07:08:38;;;;;;;34.28;22.40;;;;;;;-1.58;83.19;100328.72;5055357;28;20391;-80
2021/01/13 07:11:43;;;;;;;42.03;25.13;;;;;;;-1.52;83.26;100340.81;5056367;28;20376;-78
2021/01/13 07:14:54;;;;;;;28.98;19.73;;;;;;;-1.45;83.23;100344.91;5059225;28;20724;-78
2021/01/13 07:18:01;;;;;;;29.95;19.48;;;;;;;-1.37;82.72;100358.63;5073046;28;20407;-78
2021/01/13 07:21:11;;;;;;;35.53;20.88;;;;;;;-1.26;82.62;100361.72;5072791;28;20041;-78
2021/01/13 07:24:19;;;;;;;33.85;19.80;;;;;;;-1.27;82.18;100352.09;5074494;28;20056;-77
2021/01/13 07:27:25;;;;;;;33.25;22.00;;;;;;;-1.28;81.90;100347.72;5075408;28;20040;-76
2021/01/13 07:30:33;;;;;;;33.97;21.70;;;;;;;-1.13;81.79;100347.13;5075401;28;20048;-74
2021/01/13 07:33:45;;;;;;;36.70;23.13;;;;;;;-0.97;81.25;100366.66;5085623;28;20056;-73
2021/01/13 07:37:02;;;;;;;35.22;22.40;;;;;;;-0.69;80.56;100359.31;5078150;28;20036;-75
2021/01/13 07:40:32;;;;;;;37.38;22.58;;;;;;;-0.36;79.23;100357.03;5091447;28;20402;-73
2021/01/13 07:43:45;;;;;;;35.15;21.88;;;;;;;0.20;78.00;100367.72;5095470;28;20498;-76
2021/01/13 07:47:01;;;;;;;35.25;21.63;;;;;;;1.11;75.39;100363.41;5094819;28;20162;-76
2021/01/13 07:50:07;;;;;;;29.67;19.73;;;;;;;2.16;71.26;100366.75;5095244;28;20043;-77
2021/01/13 07:53:22;;;;;;;28.52;18.08;;;;;;;3.08;66.91;100351.88;5090846;28;20054;-76
2021/01/13 07:56:29;;;;;;;25.58;18.63;;;;;;;3.84;63.75;100352.69;5079285;28;20071;-76
2021/01/13 07:59:45;;;;;;;29.63;20.83;;;;;;;4.63;59.40;100353.91;5084291;28;20055;-79
2021/01/13 08:03:08;;;;;;;71.95;53.33;;;;;;;5.58;57.50;100357.41;5074324;28;20044;-79
2021/01/13 08:06:32;;;;;;;46.50;32.05;;;;;;;6.30;54.79;100364.84;5073534;28;20399;-75
2021/01/13 08:09:49;;;;;;;49.10;31.40;;;;;;;7.37;51.13;100353.47;5077239;28;20075;-79
2021/01/13 08:13:15;;;;;;;31.08;23.92;;;;;;;7.61;49.80;100359.63;5077865;28;20063;-78
2021/01/13 08:17:16;;;;;;;28.35;21.15;;;;;;;9.06;46.48;100350.81;5083910;28;20063;-78
2021/01/13 08:20:42;;;;;;;35.35;24.58;;;;;;;9.40;48.61;100355.06;5087612;28;20051;-78
2021/01/13 08:24:05;;;;;;;36.60;24.73;;;;;;;10.44;44.11;100348.75;5084677;28;20541;-77
2021/01/13 08:27:10;;;;;;;26.90;20.75;;;;;;;11.60;40.52;100340.00;5078865;28;20056;-76
2021/01/13 08:30:16;;;;;;;26.75;21.58;;;;;;;13.02;37.84;100341.63;5074012;28;20494;-77
2021/01/13 08:33:23;;;;;;;32.95;27.65;;;;;;;14.27;35.35;100339.63;5073465;28;20041;-77
2021/01/13 08:36:28;;;;;;;30.27;22.05;;;;;;;15.20;32.43;100343.31;5070409;28;20415;-77
2021/01/13 08:39:34;;;;;;;30.05;23.83;;;;;;;16.55;30.79;100354.44;5062808;28;20036;-79
2021/01/13 08:42:41;;;;;;;28.60;22.38;;;;;;;16.85;30.01;100344.69;5074737;28;20048;-78
2021/01/13 08:45:51;;;;;;;24.35;19.05;;;;;;;16.89;29.45;100360.44;5072831;28;20040;-79
2021/01/13 08:48:56;;;;;;;24.85;19.00;;;;;;;19.87;26.01;100347.75;5074051;28;20041;-78
2021/01/13 08:52:19;;;;;;;25.27;19.17;;;;;;;23.83;21.18;100348.19;5073384;28;20479;-78
2021/01/13 08:55:24;;;;;;;24.02;19.73;;;;;;;24.73;19.44;100346.84;5073263;28;20045;-80
2021/01/13 08:58:33;;;;;;;25.80;20.15;;;;;;;21.97;22.47;100358.09;5063682;28;20037;-75
2021/01/13 09:01:40;;;;;;;25.75;21.67;;;;;;;25.91;18.29;100360.03;5061160;28;20048;-78
2021/01/13 09:04:57;;;;;;;27.85;23.60;;;;;;;25.03;18.36;100359.69;5090249;28;20048;-79
2021/01/13 09:08:06;;;;;;;28.70;23.63;;;;;;;24.00;19.73;100363.06;5053462;28;20041;-78
2021/01/13 09:11:35;;;;;;;27.40;23.92;;;;;;;25.62;18.55;100364.47;5064064;28;20044;-77
2021/01/13 09:14:39;;;;;;;32.50;24.55;;;;;;;25.42;18.77;100343.75;5053221;28;20049;-80
2021/01/13 09:17:58;;;;;;;27.98;22.92;;;;;;;26.32;17.68;100357.28;5053424;28;20037;-77
2021/01/13 09:21:02;;;;;;;26.45;23.67;;;;;;;25.46;18.53;100367.84;5069606;28;20043;-77
2021/01/13 09:24:10;;;;;;;24.50;21.83;;;;;;;23.16;20.21;100371.47;5093383;28;20048;-77
2021/01/13 09:27:14;;;;;;;27.83;24.33;;;;;;;22.90;20.81;100387.13;5085549;28;20487;-78
2021/01/13 09:30:41;;;;;;;30.30;26.90;;;;;;;22.24;21.49;100375.34;5073359;28;20049;-76
2021/01/13 09:33:45;;;;;;;30.20;26.52;;;;;;;20.07;23.71;100378.78;5072764;28;20044;-77
2021/01/13 09:36:58;;;;;;;31.08;27.13;;;;;;;16.00;28.72;100394.06;5073252;28;20049;-77
2021/01/13 09:40:04;;;;;;;31.30;26.98;;;;;;;13.71;32.92;100420.09;5073175;28;20372;-77
2021/01/13 09:43:35;;;;;;;35.78;28.42;;;;;;;10.19;40.17;100427.00;5051981;28;20045;-78
2021/01/13 09:46:41;;;;;;;38.72;31.10;;;;;;;7.98;46.84;100411.97;5052940;28;20037;-77
2021/01/13 09:49:48;;;;;;;37.53;31.10;;;;;;;8.05;47.83;100423.91;5052804;28;20056;-76
2021/01/13 09:52:54;;;;;;;41.95;32.53;;;;;;;7.53;49.16;100436.81;5071112;28;20063;-77
2021/01/13 09:56:07;;;;;;;40.40;32.03;;;;;;;7.64;50.03;100429.72;5073642;28;20400;-76
2021/01/13 09:59:12;;;;;;;40.38;31.88;;;;;;;7.04;51.11;100435.03;5052783;28;20052;-77
2021/01/13 10:02:19;;;;;;;42.80;31.85;;;;;;;6.84;52.21;100418.78;5062811;28;20067;-76
2021/01/13 10:05:24;;;;;;;41.22;31.63;;;;;;;7.00;52.46;100428.22;5072632;28;20115;-78
2021/01/13 10:08:32;;;;;;;41.67;31.98;;;;;;;7.12;52.71;100430.00;5072731;28;20395;-76
2021/01/13 10:11:38;;;;;;;39.90;31.83;;;;;;;6.61;52.70;100420.41;5079568;28;20533;-77
2021/01/13 10:14:51;;;;;;;43.33;32.13;;;;;;;6.40;53.55;100436.06;5082592;28;20051;-77
2021/01/13 10:18:02;;;;;;;40.13;32.00;;;;;;;6.85;53.38;100428.47;5077048;28;20047;-76
2021/01/13 10:21:07;;;;;;;43.45;32.95;;;;;;;6.68;53.88;100415.47;5082859;28;20048;-78
2021/01/13 10:24:13;;;;;;;42.83;32.97;;;;;;;7.01;52.69;100429.91;5071651;28;20055;-75
2021/01/13 10:27:19;;;;;;;40.92;31.25;;;;;;;6.82;53.43;100426.88;5071902;28;20052;-75
2021/01/13 10:30:24;;;;;;;47.22;33.97;;;;;;;6.84;53.23;100432.13;5058403;28;20056;-76
2021/01/13 10:33:45;;;;;;;42.70;33.40;;;;;;;7.05;52.98;100431.41;5075787;28;20055;-77
2021/01/13 10:36:50;;;;;;;46.20;33.30;;;;;;;7.21;53.29;100428.47;5078310;28;20071;-79
2021/01/13 10:40:08;;;;;;;45.28;32.65;;;;;;;7.31;52.61;100431.34;5076231;28;20099;-76
2021/01/13 10:43:21;;;;;;;42.97;32.33;;;;;;;7.43;52.70;100425.94;5075842;28;20051;-78
2021/01/13 10:46:30;;;;;;;45.38;33.17;;;;;;;7.57;52.72;100422.25;5075837;28;20052;-77
2021/01/13 10:49:37;;;;;;;42.92;32.53;;;;;;;7.56;52.01;100431.22;5075783;28;20048;-77
2021/01/13 10:52:45;;;;;;;41.63;31.67;;;;;;;7.56;52.66;100421.41;5075848;28;20047;-77
2021/01/13 10:55:51;;;;;;;41.63;32.55;;;;;;;7.44;52.84;100421.47;5075770;28;20075;-75
2021/01/13 10:59:03;;;;;;;46.17;33.65;;;;;;;7.39;53.91;100418.28;5074934;28;20051;-76
2021/01/13 11:02:10;;;;;;;42.42;33.22;;;;;;;7.31;54.97;100418.84;5073608;28;20142;-76
2021/01/13 11:05:16;;;;;;;44.30;33.08;;;;;;;7.31;55.55;100418.00;5075410;28;20055;-78
2021/01/13 11:08:20;;;;;;;39.28;31.80;;;;;;;6.94;55.34;100412.66;5075700;28;20048;-75
2021/01/13 11:11:25;;;;;;;44.72;33.38;;;;;;;6.70;56.41;100409.06;5075069;28;20052;-76
2021/01/13 11:14:29;;;;;;;44.28;34.13;;;;;;;6.67;56.78;100406.63;5055318;28;20048;-78
2021/01/13 11:17:34;;;;;;;46.03;34.63;;;;;;;6.69;57.06;100395.84;5068866;28;20521;-78
2021/01/13 11:20:39;;;;;;;43.90;33.65;;;;;;;6.64;56.69;100398.81;5075403;28;20056;-76
2021/01/13 11:23:44;;;;;;;47.20;34.25;;;;;;;6.78;56.78;100400.53;5075568;28;20153;-77
2021/01/13 11:26:49;;;;;;;42.80;32.83;;;;;;;6.77;57.35;100388.13;5074241;28;20059;-78
2021/01/13 11:29:55;;;;;;;45.03;34.13;;;;;;;6.87;56.81;100399.84;5075517;28;20055;-76
2021/01/13 11:33:01;;;;;;;45.55;34.45;;;;;;;6.82;57.14;100407.34;5074428;28;20055;-77
2021/01/13 11:36:06;;;;;;;46.25;33.30;;;;;;;6.63;57.46;100410.47;5075387;28;20067;-77
2021/01/13 11:39:21;;;;;;;43.80;33.35;;;;;;;6.49;58.38;100413.25;5074429;28;20055;-78
2021/01/13 11:42:35;;;;;;;46.65;33.72;;;;;;;6.53;58.61;100412.06;5074830;28;20047;-78
2021/01/13 11:46:03;;;;;;;52.45;33.47;;;;;;;6.63;58.32;100406.94;5074898;28;20510;-78
2021/01/13 11:49:25;;;;;;;42.38;32.92;;;;;;;6.69;58.45;100399.34;5065717;28;20040;-77
2021/01/13 11:52:33;;;;;;;43.17;33.90;;;;;;;6.59;58.96;100405.47;5074445;28;20067;-76
2021/01/13 11:55:39;;;;;;;47.60;34.75;;;;;;;6.58;59.23;100396.59;5074610;28;20435;-77
2021/01/13 11:58:47;;;;;;;45.17;33.95;;;;;;;6.59;59.60;100390.31;5074758;28;20044;-78
2021/01/13 12:01:53;;;;;;;45.47;33.20;;;;;;;6.64;59.70;100387.31;5074615;28;20422;-77
2021/01/13 12:04:58;;;;;;;46.60;35.80;;;;;;;6.66;59.45;100380.94;5074603;28;20043;-77
2021/01/13 12:08:16;;;;;;;48.50;34.78;;;;;;;6.79;59.37;100394.25;5074780;28;20048;-76
2021/01/13 12:11:21;;;;;;;44.22;34.13;;;;;;;6.85;59.57;100388.44;5074379;28;20064;-76
2021/01/13 12:14:26;;;;;;;45.35;33.53;;;;;;;6.79;59.48;100384.41;5073392;28;20051;-76
2021/01/13 12:17:33;;;;;;;45.67;32.75;;;;;;;6.94;59.67;100382.44;5074490;28;20502;-77
2021/01/13 12:20:38;;;;;;;45.88;32.15;;;;;;;6.99;59.80;100390.97;5065512;28;20395;-77
2021/01/13 12:23:47;;;;;;;44.72;34.25;;;;;;;7.01;60.23;100392.56;5084787;28;20506;-77
2021/01/13 12:26:51;;;;;;;47.75;32.92;;;;;;;6.99;60.21;100383.81;5086830;28;20051;-78
2021/01/13 12:30:13;;;;;;;51.75;32.78;;;;;;;6.97;60.02;100379.56;5079769;28;20055;-78
2021/01/13 12:33:18;;;;;;;44.00;32.22;;;;;;;6.97;60.33;100380.41;5070276;28;20055;-77
2021/01/13 12:36:26;;;;;;;47.25;33.45;;;;;;;6.94;60.68;100387.78;5070444;28;20067;-77
2021/01/13 12:39:35;;;;;;;48.80;33.33;;;;;;;6.87;61.13;100383.84;5070204;28;20510;-77
2021/01/13 12:42:39;;;;;;;42.97;32.05;;;;;;;6.91;61.30;100382.69;5070228;28;20051;-77
2021/01/13 12:45:46;;;;;;;48.72;32.65;;;;;;;6.91;61.96;100375.50;5071176;28;20060;-78
2021/01/13 12:48:50;;;;;;;41.25;32.20;;;;;;;6.85;62.81;100378.63;5072618;28;20052;-79
2021/01/13 12:51:56;;;;;;;40.40;30.45;;;;;;;6.86;62.62;100367.00;5072729;28;20059;-78
2021/01/13 12:55:01;;;;;;;41.53;31.70;;;;;;;6.89;62.63;100374.78;5072149;28;20506;-79
2021/01/13 12:58:05;;;;;;;39.83;31.40;;;;;;;6.98;62.58;100366.13;5073235;28;20047;-77
2021/01/13 13:01:10;;;;;;;38.08;30.00;;;;;;;6.99;63.07;100366.94;5073160;28;20151;-76
2021/01/13 13:04:15;;;;;;;42.42;30.98;;;;;;;6.97;62.82;100364.41;5073905;28;20075;-76
2021/01/13 13:07:19;;;;;;;40.55;32.20;;;;;;;7.02;62.71;100362.25;5073969;28;20454;-76
2021/01/13 13:10:23;;;;;;;39.83;31.13;;;;;;;7.06;62.50;100354.88;5073874;28;20067;-77
2021/01/13 13:13:28;;;;;;;42.63;30.50;;;;;;;7.08;62.62;100361.81;5073317;28;20051;-75
2021/01/13 13:16:33;;;;;;;39.17;29.67;;;;;;;7.11;62.55;100358.91;5074064;28;20044;-76
2021/01/13 13:19:37;;;;;;;40.85;30.17;;;;;;;6.99;62.48;100361.59;5073341;28;20479;-77
2021/01/13 13:22:42;;;;;;;43.05;30.30;;;;;;;7.09;63.19;100357.31;5073710;28;20388;-77
2021/01/13 13:25:46;;;;;;;34.63;28.75;;;;;;;7.13;63.50;100364.97;5072806;28;20051;-77
2021/01/13 13:28:51;;;;;;;44.85;31.15;;;;;;;7.01;63.92;100357.88;5073710;28;20056;-77
2021/01/13 13:31:55;;;;;;;40.28;31.45;;;;;;;7.05;63.97;100370.03;5073737;28;20056;-77
2021/01/13 13:35:00;;;;;;;35.67;28.92;;;;;;;6.96;64.23;100351.19;5071791;28;20071;-76
2021/01/13 13:38:04;;;;;;;41.30;29.10;;;;;;;7.00;64.33;100377.53;5081770;28;20075;-77
2021/01/13 13:41:09;;;;;;;40.42;29.02;;;;;;;6.99;64.82;100375.81;5068850;28;20083;-78
2021/01/13 13:44:14;;;;;;;35.50;27.05;;;;;;;6.96;64.96;100367.19;5077727;28;20052;-79
2021/01/13 13:47:19;;;;;;;37.97;28.80;;;;;;;6.98;64.76;100367.94;5072707;28;20048;-79
2021/01/13 13:50:23;;;;;;;36.60;29.05;;;;;;;7.00;64.86;100369.53;5072143;28;20044;-79
2021/01/13 13:53:29;;;;;;;45.13;30.52;;;;;;;6.97;65.87;100375.06;5073216;28;20051;-77
2021/01/13 13:56:34;;;;;;;36.13;29.50;;;;;;;6.94;66.14;100372.63;5072882;28;20051;-78
2021/01/13 13:59:38;;;;;;;38.05;29.48;;;;;;;6.96;65.83;100373.34;5078369;28;20052;-77
2021/01/13 14:02:42;;;;;;;38.92;30.58;;;;;;;6.85;66.17;100364.44;5095365;28;20047;-78
2021/01/13 14:05:46;;;;;;;41.85;29.95;;;;;;;6.86;66.76;100361.69;5097135;28;20051;-78
2021/01/13 14:08:51;;;;;;;40.53;29.98;;;;;;;6.91;66.67;100370.16;5096150;28;20529;-78
2021/01/13 14:11:55;;;;;;;47.75;31.27;;;;;;;6.84;66.39;100384.09;5087335;28;20048;-77
2021/01/13 14:15:00;;;;;;;39.13;29.63;;;;;;;6.85;66.81;100383.13;5076505;28;20383;-78
2021/01/13 14:18:05;;;;;;;36.85;29.98;;;;;;;6.79;66.85;100381.72;5076535;28;20048;-75
2021/01/13 14:21:13;;;;;;;39.25;30.02;;;;;;;6.79;67.80;100387.06;5082149;28;20521;-78
2021/01/13 14:24:17;;;;;;;47.38;31.67;;;;;;;6.73;67.79;100382.19;5056679;28;20056;-77
2021/01/13 14:26:58;;;;;;;39.03;30.85;;;;;;;6.69;67.84;100378.00;5072969;27;20702;-77
2021/01/13 14:30:07;;;;;;;46.20;32.33;;;;;;;6.66;68.04;100383.59;5083671;28;20051;-77